Time;durP1;ratioP1;P1;durP2;ratioP2;P2;SDS_P1;SDS_P2;PMS_P1;PMS_P2;Temp;Humidity;BMP_temperature;BMP_pressure;BME280_temperature;BME280_humidity;BME280_pressure;Samples;Min_cycle;Max_cycle;Signal;HPM_P1;HPM_P2
2023/02/05 00:01:32;;;;;;;10.88;5.05;;;;;;;0.27;100.00;100833.66;5058804;28;20025;-70
2023/02/05 00:03:57;;;;;;;13.52;5.80;;;;;;;0.17;100.00;100832.47;5070336;28;20054;-71
2023/02/05 00:06:23;;;;;;;12.40;5.82;;;;;;;0.21;100.00;100856.16;5066872;28;20036;-70
2023/02/05 00:08:48;;;;;;;14.23;6.32;;;;;;;0.24;100.00;100859.56;5064578;28;20021;-71
2023/02/05 00:11:13;;;;;;;14.35;5.43;;;;;;;0.24;100.00;100846.25;5059493;28;20033;-69
2023/02/05 00:13:40;;;;;;;16.20;6.40;;;;;;;0.35;100.00;100858.03;5053201;28;20021;-70
2023/02/05 00:16:11;;;;;;;16.58;6.30;;;;;;;0.43;100.00;100828.31;5052439;28;20504;-70
2023/02/05 00:18:37;;;;;;;14.02;6.03;;;;;;;0.59;100.00;100845.09;5063340;28;20117;-70
2023/02/05 00:21:04;;;;;;;12.48;6.20;;;;;;;0.68;100.00;100829.53;5055255;28;20104;-71
2023/02/05 00:23:30;;;;;;;16.55;6.25;;;;;;;0.61;100.00;100829.06;5056112;28;20033;-71
2023/02/05 00:25:55;;;;;;;16.92;6.82;;;;;;;0.65;100.00;100841.22;5056934;28;20500;-71
2023/02/05 00:28:20;;;;;;;12.05;6.55;;;;;;;0.67;100.00;100834.00;5071955;28;20025;-74
2023/02/05 00:30:46;;;;;;;18.83;7.20;;;;;;;0.80;100.00;100832.34;5053010;28;20021;-71
2023/02/05 00:33:11;;;;;;;10.85;6.03;;;;;;;0.86;100.00;100841.75;5051700;28;20514;-70
2023/02/05 00:35:36;;;;;;;15.93;6.03;;;;;;;0.65;100.00;100811.91;5061718;28;20025;-68
2023/02/05 00:38:01;;;;;;;15.15;6.90;;;;;;;0.63;100.00;100805.84;5062194;28;20052;-71
2023/02/05 00:40:27;;;;;;;20.23;7.10;;;;;;;0.79;100.00;100827.97;5056567;28;20490;-71
2023/02/05 00:42:52;;;;;;;16.38;7.57;;;;;;;0.64;100.00;100805.75;5057618;28;20052;-71
2023/02/05 00:45:17;;;;;;;13.43;6.63;;;;;;;0.61;100.00;100797.94;5055182;28;20189;-71
2023/02/05 00:47:43;;;;;;;16.67;6.97;;;;;;;0.92;100.00;100816.56;5061228;28;20040;-71
2023/02/05 00:50:08;;;;;;;14.30;6.53;;;;;;;0.88;100.00;100818.56;5052952;28;20021;-71
2023/02/05 00:52:33;;;;;;;17.75;6.55;;;;;;;1.09;100.00;100835.06;5043974;28;20025;-74
2023/02/05 00:54:59;;;;;;;17.45;7.43;;;;;;;1.05;100.00;100814.88;5045707;28;20020;-70
2023/02/05 00:57:24;;;;;;;16.50;6.43;;;;;;;1.04;100.00;100827.34;5036544;28;20025;-71
2023/02/05 00:59:51;;;;;;;11.80;6.22;;;;;;;1.12;100.00;100836.69;5046497;28;20387;-71
2023/02/05 01:02:22;;;;;;;16.75;6.55;;;;;;;1.03;100.00;100796.31;5039398;28;20028;-70
2023/02/05 01:04:49;;;;;;;12.55;5.47;;;;;;;1.32;100.00;100812.34;5045697;28;20126;-72
2023/02/05 01:07:14;;;;;;;14.60;5.90;;;;;;;1.12;100.00;100799.38;5063339;28;20119;-70
2023/02/05 01:09:40;;;;;;;13.70;6.13;;;;;;;1.07;100.00;100807.63;5054218;28;20090;-72
2023/02/05 01:12:05;;;;;;;15.45;6.60;;;;;;;1.04;100.00;100813.16;5056198;28;20028;-70
2023/02/05 01:14:30;;;;;;;11.45;5.53;;;;;;;0.92;100.00;100793.44;5062508;28;20103;-70
2023/02/05 01:16:55;;;;;;;12.15;6.18;;;;;;;1.08;100.00;100806.69;5051278;28;20530;-73
2023/02/05 01:19:21;;;;;;;12.60;5.82;;;;;;;0.99;100.00;100794.78;5062838;28;20016;-71
2023/02/05 01:21:46;;;;;;;15.95;6.45;;;;;;;0.98;100.00;100801.06;5033013;28;20025;-73
2023/02/05 01:24:11;;;;;;;15.65;7.35;;;;;;;0.95;100.00;100805.72;5059045;28;20124;-71
2023/02/05 01:26:37;;;;;;;15.90;6.50;;;;;;;0.95;100.00;100797.75;5050795;28;20539;-70
2023/02/05 01:29:02;;;;;;;13.63;6.82;;;;;;;1.06;100.00;100809.44;5057535;28;20063;-74
2023/02/05 01:31:28;;;;;;;14.07;6.38;;;;;;;1.07;100.00;100803.19;5057461;28;20116;-70
2023/02/05 01:33:54;;;;;;;18.65;6.68;;;;;;;1.21;100.00;100798.81;5050045;28;20115;-72
2023/02/05 01:36:19;;;;;;;13.43;6.10;;;;;;;1.22;100.00;100795.19;5045803;28;20026;-70
2023/02/05 01:38:45;;;;;;;15.50;5.60;;;;;;;1.29;100.00;100812.53;5052998;28;20046;-71
2023/02/05 01:41:12;;;;;;;14.77;5.95;;;;;;;1.31;100.00;100799.97;5060199;28;20107;-70
2023/02/05 01:43:37;;;;;;;14.65;5.97;;;;;;;1.21;100.00;100798.81;5052813;28;20087;-68
2023/02/05 01:46:12;;;;;;;19.15;6.00;;;;;;;1.08;100.00;100772.91;5041765;28;20025;-71
2023/02/05 01:48:42;;;;;;;14.00;5.47;;;;;;;1.09;100.00;100790.59;5052958;28;20037;-71
2023/02/05 01:51:12;;;;;;;16.95;6.28;;;;;;;1.01;100.00;100784.88;5062948;28;20027;-69
2023/02/05 01:53:38;;;;;;;18.63;6.47;;;;;;;0.88;100.00;100775.91;5058126;28;20040;-71
2023/02/05 01:56:11;;;;;;;18.92;7.47;;;;;;;0.89;100.00;100777.63;5048868;28;20071;-71
2023/02/05 01:58:46;;;;;;;21.23;7.93;;;;;;;0.81;100.00;100771.91;5060056;28;20129;-72
2023/02/05 02:01:11;;;;;;;19.55;9.13;;;;;;;0.80;100.00;100770.19;5057578;28;20029;-71
2023/02/05 02:03:39;;;;;;;21.92;9.02;;;;;;;0.72;100.00;100753.81;5060392;28;20091;-71
2023/02/05 02:06:05;;;;;;;21.40;9.82;;;;;;;0.71;100.00;100744.97;5036945;28;20025;-69
2023/02/05 02:08:31;;;;;;;23.55;9.35;;;;;;;0.68;100.00;100752.28;5067197;28;20033;-71
2023/02/05 02:11:00;;;;;;;21.25;8.85;;;;;;;0.75;100.00;100764.28;5059473;28;20087;-71
2023/02/05 02:13:28;;;;;;;18.45;8.88;;;;;;;0.75;100.00;100748.31;5048939;28;20095;-70
2023/02/05 02:15:55;;;;;;;19.08;9.02;;;;;;;0.90;100.00;100750.03;5058690;28;20063;-69
2023/02/05 02:18:27;;;;;;;18.00;7.97;;;;;;;0.84;100.00;100734.44;5074462;28;20078;-71
2023/02/05 02:21:29;;;;;;;15.88;7.03;;;;;;;0.95;100.00;100750.63;5067189;28;20025;-72
2023/02/05 02:24:34;;;;;;;12.75;6.05;;;;;;;0.96;100.00;100744.31;5056107;28;20835;-70
2023/02/05 02:27:32;;;;;;;14.90;6.43;;;;;;;1.04;100.00;100749.19;5057489;28;20517;-72
2023/02/05 02:30:04;;;;;;;12.32;6.05;;;;;;;1.03;100.00;100732.34;5027495;28;20041;-70
2023/02/05 02:32:43;;;;;;;10.68;6.70;;;;;;;1.17;100.00;100738.63;5066603;28;20051;-72
2023/02/05 02:35:16;;;;;;;;;;;;;;;1.18;100.00;100741.22;5033958;28;20073;-70
2023/02/05 02:37:53;;;;;;;14.80;6.13;;;;;;;1.12;100.00;100727.38;5060075;28;19917;-71
2023/02/05 02:40:25;;;;;;;13.48;6.63;;;;;;;1.07;100.00;100733.00;5043665;28;20383;-70
2023/02/05 02:43:14;;;;;;;19.20;6.85;;;;;;;1.12;100.00;100735.38;5061722;28;20081;-73
2023/02/05 02:45:46;;;;;;;21.13;6.30;;;;;;;1.06;100.00;100736.63;5054504;28;20141;-70
2023/02/05 02:48:15;;;;;;;15.30;7.32;;;;;;;0.81;100.00;100714.16;5067160;28;20103;-68
2023/02/05 02:50:44;;;;;;;28.60;10.15;;;;;;;0.80;100.00;100727.56;5054167;28;20224;-72
2023/02/05 02:53:15;;;;;;;20.92;8.98;;;;;;;0.85;100.00;100730.81;5068669;28;20086;-72
2023/02/05 02:55:43;;;;;;;23.38;9.43;;;;;;;0.82;100.00;100723.88;5050553;28;20504;-72
2023/02/05 02:58:24;;;;;;;20.42;9.15;;;;;;;0.77;100.00;100712.63;5052373;28;20049;-71
2023/02/05 03:00:52;;;;;;;17.00;8.65;;;;;;;0.90;100.00;100703.88;5031330;28;20014;-71
2023/02/05 03:03:20;;;;;;;14.75;6.20;;;;;;;1.14;100.00;100717.50;5039823;28;20056;-71
2023/02/05 03:05:48;;;;;;;17.25;8.18;;;;;;;1.10;100.00;100719.47;5060900;28;20028;-73
2023/02/05 03:08:21;;;;;;;17.42;7.55;;;;;;;1.04;100.00;100710.06;5061409;28;20037;-70
2023/02/05 03:10:57;;;;;;;12.48;6.25;;;;;;;1.02;100.00;100698.66;5060416;28;20059;-74
2023/02/05 03:13:23;;;;;;;13.90;6.90;;;;;;;0.95;100.00;100707.97;5056490;28;20025;-74
2023/02/05 03:15:48;;;;;;;13.95;7.00;;;;;;;0.81;100.00;100703.50;5049404;28;20584;-74
2023/02/05 03:18:16;;;;;;;12.05;5.82;;;;;;;0.91;100.00;100724.25;5049196;28;20462;-70
2023/02/05 03:20:47;;;;;;;11.98;5.85;;;;;;;0.79;100.00;100712.53;5051021;28;20048;-72
2023/02/05 03:23:12;;;;;;;11.00;5.60;;;;;;;0.72;100.00;100706.72;5051925;28;20531;-69
2023/02/05 03:25:38;;;;;;;13.20;5.75;;;;;;;0.82;100.00;100721.19;5046872;28;20028;-72
2023/02/05 03:28:03;;;;;;;12.52;5.88;;;;;;;0.67;100.00;100699.97;5057794;28;20397;-72
2023/02/05 03:30:38;;;;;;;10.13;5.00;;;;;;;0.68;100.00;100699.84;5066603;28;20060;-72
2023/02/05 03:33:15;;;;;;;8.98;4.53;;;;;;;0.67;100.00;100689.31;5033330;28;20021;-72
2023/02/05 03:35:46;;;;;;;12.25;4.85;;;;;;;0.62;100.00;100690.44;5061751;28;20028;-68
2023/02/05 03:38:11;;;;;;;11.05;4.35;;;;;;;0.69;100.00;100692.75;5057883;28;20489;-69
2023/02/05 03:40:50;;;;;;;12.10;4.60;;;;;;;0.52;100.00;100670.63;5059987;28;20016;-70
2023/02/05 03:43:24;;;;;;;;;;;;;;;0.55;100.00;100686.44;5066567;28;20058;-71
2023/02/05 03:46:07;;;;;;;11.55;4.97;;;;;;;0.46;100.00;100689.66;5062137;28;19913;-71
2023/02/05 03:48:35;;;;;;;12.43;6.43;;;;;;;0.48;100.00;100687.75;5055357;28;20021;-72
2023/02/05 03:51:13;;;;;;;14.65;6.45;;;;;;;0.22;100.00;100681.34;5042555;28;20048;-72
2023/02/05 03:53:48;;;;;;;19.58;7.70;;;;;;;0.18;100.00;100680.66;5050552;28;20429;-72
2023/02/05 03:56:21;;;;;;;16.75;7.43;;;;;;;0.26;100.00;100687.31;5057584;28;20020;-72
2023/02/05 03:58:51;;;;;;;14.48;7.18;;;;;;;0.04;100.00;100661.97;5072749;28;20020;-71
2023/02/05 04:01:17;;;;;;;18.23;7.80;;;;;;;0.02;100.00;100673.66;5057945;28;20462;-70
2023/02/05 04:03:43;;;;;;;18.02;7.15;;;;;;;-0.06;100.00;100669.63;5045570;28;20025;-71
2023/02/05 04:06:08;;;;;;;14.95;7.20;;;;;;;-0.06;100.00;100682.09;5051096;28;20449;-68
2023/02/05 04:08:34;;;;;;;14.25;6.97;;;;;;;-0.13;100.00;100676.28;5067805;28;20063;-73
2023/02/05 04:10:59;;;;;;;17.63;7.60;;;;;;;-0.06;100.00;100679.44;5056131;28;20177;-71
2023/02/05 04:13:25;;;;;;;13.25;7.10;;;;;;;-0.15;100.00;100672.00;5048746;28;20449;-72
2023/02/05 04:15:50;;;;;;;14.30;6.68;;;;;;;-0.13;100.00;100688.72;5047515;28;20036;-70
2023/02/05 04:18:16;;;;;;;16.45;7.80;;;;;;;-0.18;100.00;100674.81;5057315;28;20032;-68
2023/02/05 04:20:42;;;;;;;15.43;7.57;;;;;;;-0.35;100.00;100660.69;5043049;28;20057;-71
2023/02/05 04:23:07;;;;;;;18.08;7.57;;;;;;;-0.22;100.00;100676.81;5061230;28;20067;-70
2023/02/05 04:25:35;;;;;;;14.57;7.80;;;;;;;-0.34;100.00;100656.22;5049372;28;20076;-73
2023/02/05 04:28:01;;;;;;;14.35;7.50;;;;;;;-0.07;100.00;100683.91;5052219;28;20429;-73
2023/02/05 04:30:26;;;;;;;13.60;7.15;;;;;;;-0.19;100.00;100691.72;5037239;28;20025;-71
2023/02/05 04:32:51;;;;;;;14.45;7.28;;;;;;;-0.23;100.00;100691.06;5041032;28;20040;-70
2023/02/05 04:35:17;;;;;;;17.48;7.15;;;;;;;-0.31;100.00;100678.19;5050264;28;20028;-68
2023/02/05 04:37:42;;;;;;;14.75;7.55;;;;;;;-0.29;100.00;100665.69;5053960;28;20028;-70
2023/02/05 04:40:08;;;;;;;14.60;7.13;;;;;;;-0.33;100.00;100661.47;5055776;28;20453;-70
2023/02/05 04:42:33;;;;;;;12.88;6.35;;;;;;;-0.38;100.00;100674.16;5049017;28;20036;-72
2023/02/05 04:44:59;;;;;;;10.73;6.38;;;;;;;-0.20;100.00;100682.06;5045597;28;20035;-70
2023/02/05 04:47:24;;;;;;;15.40;6.75;;;;;;;-0.13;100.00;100696.69;5059814;28;20021;-70
2023/02/05 04:49:49;;;;;;;13.23;6.25;;;;;;;-0.22;100.00;100693.63;5049174;28;20033;-74
2023/02/05 04:52:15;;;;;;;10.73;5.70;;;;;;;-0.12;100.00;100698.41;5048666;28;20033;-71
2023/02/05 04:54:40;;;;;;;11.45;5.50;;;;;;;-0.22;100.00;100690.09;5058703;28;20060;-70
2023/02/05 04:57:05;;;;;;;13.05;5.10;;;;;;;-0.40;100.00;100662.75;5059386;28;20525;-69
2023/02/05 04:59:31;;;;;;;11.50;5.28;;;;;;;-0.31;100.00;100687.97;5050828;28;20114;-71
2023/02/05 05:01:59;;;;;;;10.20;5.00;;;;;;;-0.37;100.00;100694.47;5060726;28;20559;-70
2023/02/05 05:04:25;;;;;;;8.23;4.65;;;;;;;-0.53;100.00;100683.00;5059269;28;20036;-70
2023/02/05 05:06:50;;;;;;;11.40;4.90;;;;;;;-0.52;100.00;100704.19;5060158;28;20020;-70
2023/02/05 05:09:15;;;;;;;10.25;4.80;;;;;;;-0.61;100.00;100687.91;5050440;28;20111;-70
2023/02/05 05:11:41;;;;;;;12.73;5.45;;;;;;;-0.53;100.00;100686.53;5041752;28;20113;-70
2023/02/05 05:14:06;;;;;;;9.32;4.85;;;;;;;-0.41;100.00;100708.91;5042528;28;20116;-72
2023/02/05 05:16:31;;;;;;;13.32;5.63;;;;;;;-0.33;100.00;100716.47;5061883;28;20032;-70
2023/02/05 05:18:56;;;;;;;14.98;5.18;;;;;;;-0.34;100.00;100689.03;5070213;28;20491;-71
2023/02/05 05:21:22;;;;;;;10.20;5.13;;;;;;;-0.22;100.00;100704.25;5051609;28;20021;-71
2023/02/05 05:23:47;;;;;;;11.85;4.63;;;;;;;-0.15;100.00;100702.13;5044811;28;20094;-72
2023/02/05 05:26:12;;;;;;;9.27;5.07;;;;;;;0.02;100.00;100706.44;5051768;28;20024;-72
2023/02/05 05:28:38;;;;;;;7.50;4.20;;;;;;;0.13;100.00;100701.38;5057688;28;20032;-70
2023/02/05 05:31:12;;;;;;;9.68;5.03;;;;;;;0.17;100.00;100712.69;5055411;28;20043;-71
2023/02/05 05:33:38;;;;;;;7.82;4.70;;;;;;;0.10;100.00;100684.72;5057086;28;20087;-71
2023/02/05 05:36:05;;;;;;;10.68;6.28;;;;;;;0.12;100.00;100681.00;5045687;28;20033;-70
2023/02/05 05:38:30;;;;;;;13.95;8.20;;;;;;;0.17;100.00;100697.56;5050237;28;20547;-71
2023/02/05 05:43:45;;;;;;;15.02;7.65;;;;;;;0.16;100.00;100692.34;5047010;28;20130;-71
2023/02/05 05:46:12;;;;;;;14.07;7.95;;;;;;;0.18;100.00;100688.66;5056315;28;20032;-69
2023/02/05 05:48:37;;;;;;;17.10;9.55;;;;;;;0.15;100.00;100675.50;5067732;28;20128;-72
2023/02/05 05:51:03;;;;;;;13.95;9.30;;;;;;;0.23;100.00;100685.69;5061630;28;20456;-70
2023/02/05 05:53:28;;;;;;;14.88;9.30;;;;;;;0.21;100.00;100675.16;5052691;28;20036;-70
2023/02/05 05:55:54;;;;;;;19.80;8.20;;;;;;;0.26;100.00;100672.19;5063856;28;20032;-71
2023/02/05 05:58:19;;;;;;;17.90;9.05;;;;;;;0.28;100.00;100648.16;5058597;28;20028;-70
2023/02/05 06:00:44;;;;;;;13.55;8.20;;;;;;;0.35;100.00;100662.81;5053809;28;20037;-70
2023/02/05 06:03:10;;;;;;;14.75;7.53;;;;;;;0.38;100.00;100655.50;5048160;28;20445;-70
2023/02/05 06:05:36;;;;;;;11.00;6.68;;;;;;;0.48;100.00;100665.59;5065128;28;20123;-70
2023/02/05 06:08:01;;;;;;;10.55;5.63;;;;;;;0.51;100.00;100660.09;5065616;28;20044;-68
2023/02/05 06:10:26;;;;;;;8.95;5.38;;;;;;;0.60;100.00;100676.38;5063066;28;20048;-69
2023/02/05 06:12:52;;;;;;;10.77;5.60;;;;;;;0.63;100.00;100686.84;5048664;28;20075;-72
2023/02/05 06:15:20;;;;;;;9.73;5.03;;;;;;;0.50;100.00;100653.03;5063804;28;20025;-73
2023/02/05 06:17:46;;;;;;;6.57;3.58;;;;;;;0.51;100.00;100665.41;5063707;28;20024;-70
2023/02/05 06:20:12;;;;;;;12.02;4.65;;;;;;;0.61;100.00;100688.72;5060444;28;20364;-68
2023/02/05 06:22:38;;;;;;;6.90;3.78;;;;;;;0.48;100.00;100661.13;5056944;28;20086;-69
2023/02/05 06:25:04;;;;;;;6.70;3.67;;;;;;;0.67;100.00;100678.66;5066453;28;20104;-71
2023/02/05 06:27:29;;;;;;;9.77;3.83;;;;;;;0.55;100.00;100673.13;5047761;28;20021;-69
2023/02/05 06:29:55;;;;;;;7.50;3.95;;;;;;;0.34;100.00;100653.09;5061487;28;20552;-70
2023/02/05 06:32:23;;;;;;;10.93;4.03;;;;;;;0.27;100.00;100646.47;5057245;28;20029;-73
2023/02/05 06:34:48;;;;;;;9.82;3.97;;;;;;;0.27;100.00;100657.97;5053786;28;20043;-70
2023/02/05 06:37:14;;;;;;;7.28;4.25;;;;;;;0.12;100.00;100637.56;5050088;28;20033;-71
2023/02/05 06:39:39;;;;;;;8.70;5.22;;;;;;;0.40;100.00;100674.91;5057460;28;20031;-70
2023/02/05 06:42:05;;;;;;;11.45;6.28;;;;;;;0.44;100.00;100678.22;5063250;28;20115;-70
2023/02/05 06:44:31;;;;;;;17.58;7.00;;;;;;;0.34;100.00;100661.09;5058354;28;20040;-71
2023/02/05 06:46:56;;;;;;;12.52;6.07;;;;;;;0.34;100.00;100674.41;5044326;28;20040;-70
2023/02/05 06:49:22;;;;;;;15.45;6.65;;;;;;;0.36;100.00;100683.16;5032194;28;20303;-70
2023/02/05 06:51:47;;;;;;;12.45;6.75;;;;;;;0.34;100.00;100669.97;5040050;28;20063;-71
2023/02/05 06:54:12;;;;;;;11.27;6.45;;;;;;;0.32;100.00;100658.53;5050102;28;20104;-71
2023/02/05 06:56:37;;;;;;;9.57;5.32;;;;;;;0.47;100.00;100667.38;5061644;28;20028;-75
2023/02/05 06:59:03;;;;;;;9.80;4.82;;;;;;;0.56;100.00;100677.50;5042993;28;20501;-78
2023/02/05 07:01:28;;;;;;;12.00;5.38;;;;;;;0.50;100.00;100675.22;5050657;28;20024;-77
2023/02/05 07:03:55;;;;;;;10.02;5.50;;;;;;;0.52;100.00;100670.63;5054461;28;20067;-77
2023/02/05 07:06:24;;;;;;;8.05;5.50;;;;;;;0.51;100.00;100666.28;5073801;28;20029;-74
2023/02/05 07:08:50;;;;;;;10.93;5.80;;;;;;;0.51;100.00;100671.59;5073037;28;20097;-74
2023/02/05 07:11:16;;;;;;;10.55;5.50;;;;;;;0.58;100.00;100677.41;5073570;28;20068;-70
2023/02/05 07:13:41;;;;;;;11.90;7.35;;;;;;;0.60;100.00;100671.06;5063597;28;20075;-70
2023/02/05 07:16:07;;;;;;;8.07;5.47;;;;;;;0.72;100.00;100698.72;5046305;28;20473;-68
2023/02/05 07:18:33;;;;;;;14.80;5.43;;;;;;;0.92;100.00;100702.84;5070242;28;20078;-72
2023/02/05 07:20:59;;;;;;;9.70;4.88;;;;;;;0.95;100.00;100699.97;5048216;28;20390;-70
2023/02/05 07:23:24;;;;;;;11.95;4.60;;;;;;;0.80;100.00;100676.94;5060893;28;20037;-75
2023/02/05 07:25:50;;;;;;;9.50;4.43;;;;;;;0.91;100.00;100685.13;5069054;28;20033;-77
2023/02/05 07:28:15;;;;;;;9.82;4.80;;;;;;;0.88;100.00;100675.50;5041572;28;20025;-70
2023/02/05 07:30:41;;;;;;;9.10;5.15;;;;;;;0.80;100.00;100667.13;5061618;28;20037;-70
2023/02/05 07:33:06;;;;;;;11.50;6.40;;;;;;;0.70;100.00;100659.81;5057187;28;20033;-70
2023/02/05 07:35:35;;;;;;;16.83;6.55;;;;;;;0.81;100.00;100673.31;5045038;28;20025;-70
2023/02/05 07:38:00;;;;;;;12.35;5.90;;;;;;;0.76;100.00;100662.09;5059586;28;20524;-67
2023/02/05 07:40:26;;;;;;;10.75;6.45;;;;;;;0.79;100.00;100648.59;5045304;28;20017;-69
2023/02/05 07:42:51;;;;;;;11.70;6.03;;;;;;;0.90;100.00;100656.78;5044994;28;20112;-68
2023/02/05 07:45:16;;;;;;;12.02;6.18;;;;;;;0.96;100.00;100659.03;5048264;28;20025;-70
2023/02/05 07:47:42;;;;;;;14.02;6.60;;;;;;;1.05;100.00;100660.28;5052708;28;20402;-69
2023/02/05 07:50:07;;;;;;;19.02;8.55;;;;;;;1.18;100.00;100661.22;5042691;28;20018;-71
2023/02/05 07:52:33;;;;;;;12.73;6.43;;;;;;;1.10;100.00;100631.50;5043600;28;20055;-71
2023/02/05 07:54:58;;;;;;;13.98;5.65;;;;;;;1.29;100.00;100657.88;5036690;28;20033;-68
2023/02/05 07:57:25;;;;;;;8.75;4.95;;;;;;;1.40;100.00;100662.50;5044497;28;20045;-69
2023/02/05 07:59:50;;;;;;;10.85;5.07;;;;;;;1.46;100.00;100646.09;5048516;28;20024;-71
2023/02/05 08:02:16;;;;;;;11.18;6.55;;;;;;;1.51;100.00;100649.31;5051705;28;20389;-68
2023/02/05 08:04:41;;;;;;;15.63;6.82;;;;;;;1.43;100.00;100633.81;5047848;28;20048;-77
2023/02/05 08:07:07;;;;;;;18.45;8.60;;;;;;;1.40;100.00;100622.50;5060045;28;20062;-76
2023/02/05 08:09:47;;;;;;;16.33;8.25;;;;;;;1.59;100.00;100656.84;5060041;28;20486;-78
2023/02/05 08:12:13;;;;;;;12.85;6.68;;;;;;;1.62;100.00;100654.81;5063800;28;20032;-77
2023/02/05 08:14:38;;;;;;;15.70;5.63;;;;;;;1.70;100.00;100630.28;5053058;28;20021;-78
2023/02/05 08:17:05;;;;;;;8.50;4.38;;;;;;;1.79;100.00;100644.84;5070271;28;20032;-77
2023/02/05 08:19:30;;;;;;;6.70;3.70;;;;;;;1.76;100.00;100632.56;5049487;28;20021;-77
2023/02/05 08:21:55;;;;;;;10.50;4.28;;;;;;;1.93;100.00;100642.13;5059104;28;20027;-75
2023/02/05 08:24:21;;;;;;;8.52;3.75;;;;;;;1.90;100.00;100635.16;5055265;28;20068;-79
2023/02/05 08:26:46;;;;;;;9.30;4.40;;;;;;;1.87;100.00;100638.03;5053720;28;20444;-76
2023/02/05 08:29:12;;;;;;;7.25;4.22;;;;;;;1.98;100.00;100640.84;5049819;28;20097;-74
2023/02/05 08:31:37;;;;;;;8.90;4.03;;;;;;;1.93;100.00;100618.94;5070691;28;20027;-74
2023/02/05 08:34:03;;;;;;;10.10;4.80;;;;;;;2.17;100.00;100642.25;5056041;28;20056;-69
2023/02/05 08:36:29;;;;;;;12.75;4.90;;;;;;;2.23;100.00;100633.84;5057340;28;20103;-70
2023/02/05 08:38:54;;;;;;;9.00;4.93;;;;;;;2.34;100.00;100614.41;5052538;28;20029;-70
2023/02/05 08:41:20;;;;;;;12.48;5.30;;;;;;;2.60;100.00;100625.97;5049921;28;20021;-70
2023/02/05 08:43:48;;;;;;;6.93;4.00;;;;;;;2.64;100.00;100628.28;5043019;28;20025;-70
2023/02/05 08:46:18;;;;;;;6.97;3.72;;;;;;;2.72;100.00;100630.44;5037894;28;20033;-69
2023/02/05 08:48:43;;;;;;;11.02;4.63;;;;;;;2.72;100.00;100611.72;5038407;28;20076;-70
2023/02/05 08:51:10;;;;;;;9.93;5.00;;;;;;;2.70;100.00;100604.78;5041464;28;20032;-71
2023/02/05 08:53:36;;;;;;;12.30;4.65;;;;;;;2.68;100.00;100594.22;5048337;28;20032;-75
2023/02/05 08:56:03;;;;;;;9.82;5.30;;;;;;;2.82;100.00;100594.06;5049228;28;20382;-77
2023/02/05 08:58:28;;;;;;;12.93;5.00;;;;;;;2.79;100.00;100593.44;5049119;28;20028;-77
2023/02/05 09:01:13;;;;;;;13.32;5.70;;;;;;;2.66;100.00;100590.78;5055942;28;20169;-79
2023/02/05 09:03:50;;;;;;;11.25;6.32;;;;;;;2.56;100.00;100585.22;5091059;28;20020;-79
2023/02/05 09:06:34;;;;;;;10.85;6.30;;;;;;;1.72;100.00;100490.50;5056008;28;20043;-79
2023/02/05 09:09:10;;;;;;;;;;;;;;;;;;;;;
2023/02/05 09:11:38;;;;;;;16.58;6.85;;;;;;;1.56;100.00;100503.16;5067169;28;20031;-69
2023/02/05 09:14:04;;;;;;;14.02;6.95;;;;;;;2.16;100.00;100580.00;5049764;28;20308;-69
2023/02/05 09:16:30;;;;;;;15.40;7.78;;;;;;;1.94;100.00;100572.63;5044020;28;20067;-68
2023/02/05 09:18:57;;;;;;;17.30;6.28;;;;;;;2.02;100.00;100568.56;5057687;28;20425;-76
2023/02/05 09:21:23;;;;;;;23.45;8.48;;;;;;;2.10;100.00;100579.59;5048573;28;20028;-76
2023/02/05 09:23:49;;;;;;;17.58;7.07;;;;;;;2.07;100.00;100571.75;5051677;28;20021;-77
2023/02/05 09:26:14;;;;;;;21.48;7.13;;;;;;;2.15;100.00;100574.78;5055420;28;20035;-77
2023/02/05 09:28:40;;;;;;;16.63;6.47;;;;;;;2.10;100.00;100564.41;5043501;28;20433;-77
2023/02/05 09:31:13;;;;;;;13.63;6.53;;;;;;;2.02;100.00;100572.09;5063298;28;20029;-75
2023/02/05 09:33:39;;;;;;;17.60;6.40;;;;;;;2.04;100.00;100574.66;5056402;28;20074;-75
2023/02/05 09:36:11;;;;;;;21.75;7.38;;;;;;;2.12;100.00;100562.50;5037575;28;20025;-76
2023/02/05 09:38:37;;;;;;;14.77;6.10;;;;;;;2.05;100.00;100552.34;5060651;28;20077;-76
2023/02/05 09:41:29;;;;;;;15.20;7.00;;;;;;;2.19;100.00;100554.91;5051940;28;20017;-75
2023/02/05 09:43:59;;;;;;;17.98;7.65;;;;;;;2.29;100.00;100574.66;5048506;28;20669;-78
2023/02/05 09:46:49;;;;;;;18.13;7.45;;;;;;;2.37;100.00;100561.63;5054299;28;20028;-77
2023/02/05 09:49:27;;;;;;;17.00;7.85;;;;;;;2.45;100.00;100561.09;5051540;28;20029;-76
2023/02/05 09:52:14;;;;;;;19.58;8.23;;;;;;;2.46;100.00;100570.81;5052990;28;20032;-71
2023/02/05 09:54:45;;;;;;;16.30;7.75;;;;;;;2.40;100.00;100556.06;5057394;28;20117;-77
2023/02/05 09:57:15;;;;;;;14.40;7.28;;;;;;;2.40;100.00;100557.88;5052433;28;20056;-78
2023/02/05 09:59:44;;;;;;;20.48;7.75;;;;;;;2.20;100.00;100540.56;5043789;28;20039;-78
2023/02/05 10:02:34;;;;;;;16.38;7.53;;;;;;;2.35;100.00;100544.84;5053763;28;20502;-76
2023/02/05 10:04:59;;;;;;;21.17;8.30;;;;;;;2.38;100.00;100535.75;5070150;28;20049;-78
2023/02/05 10:07:36;;;;;;;17.55;7.75;;;;;;;2.37;100.00;100539.41;5067846;28;20064;-77
2023/02/05 10:10:06;;;;;;;16.45;7.47;;;;;;;2.42;100.00;100547.97;5057071;28;20040;-79
2023/02/05 10:12:50;;;;;;;20.85;7.95;;;;;;;2.36;100.00;100545.72;5040460;28;20035;-69
2023/02/05 10:15:21;;;;;;;25.40;7.90;;;;;;;2.43;100.00;100560.34;5051657;28;20032;-70
2023/02/05 10:18:11;;;;;;;19.90;7.10;;;;;;;2.39;100.00;100557.03;5054912;28;20052;-71
2023/02/05 10:20:51;;;;;;;19.67;8.07;;;;;;;2.21;100.00;100566.34;5051726;28;20025;-71
2023/02/05 10:23:55;;;;;;;19.13;8.43;;;;;;;2.17;100.00;100549.69;5044155;28;20111;-71
2023/02/05 10:26:25;;;;;;;22.67;7.90;;;;;;;2.30;100.00;100554.16;5006557;28;20041;-73
2023/02/05 10:29:09;;;;;;;27.70;9.13;;;;;;;2.36;100.00;100557.25;5049330;28;21039;-71
2023/02/05 10:31:42;;;;;;;22.42;8.98;;;;;;;2.33;100.00;100553.94;5052383;28;20032;-71
2023/02/05 10:34:23;;;;;;;29.83;8.32;;;;;;;2.36;100.00;100541.25;5064413;28;20025;-71
2023/02/05 10:36:51;;;;;;;17.00;8.25;;;;;;;2.34;100.00;100537.81;5058881;28;20031;-69
2023/02/05 10:39:19;;;;;;;20.55;9.10;;;;;;;2.29;100.00;100528.41;5048254;28;20017;-71
2023/02/05 10:41:49;;;;;;;18.95;8.70;;;;;;;2.35;100.00;100531.50;5058468;28;20549;-72
2023/02/05 10:44:33;;;;;;;19.60;8.73;;;;;;;2.32;100.00;100530.88;5050807;28;20024;-72
2023/02/05 10:47:27;;;;;;;21.52;8.75;;;;;;;2.30;100.00;100520.28;5051228;28;20370;-71
2023/02/05 10:50:01;;;;;;;26.98;9.52;;;;;;;2.29;100.00;100502.56;5052327;28;20040;-72
2023/02/05 10:52:27;;;;;;;23.95;9.32;;;;;;;2.46;100.00;100509.34;5055738;28;20048;-70
2023/02/05 10:54:52;;;;;;;23.17;8.48;;;;;;;2.40;100.00;100501.78;5048702;28;20144;-72
2023/02/05 10:57:20;;;;;;;19.10;9.63;;;;;;;2.50;100.00;100518.03;5059015;28;20509;-72
2023/02/05 11:00:02;;;;;;;24.42;8.88;;;;;;;2.42;100.00;100516.75;5060827;28;20394;-71
2023/02/05 11:02:39;;;;;;;22.00;9.23;;;;;;;2.50;100.00;100510.88;5061971;28;20036;-70
2023/02/05 11:05:20;;;;;;;23.38;8.98;;;;;;;2.49;100.00;100492.25;5052797;28;20017;-70
2023/02/05 11:07:48;;;;;;;24.23;9.25;;;;;;;2.65;100.00;100492.88;5058752;28;20087;-71
2023/02/05 11:10:14;;;;;;;27.33;9.23;;;;;;;2.68;100.00;100503.34;5066689;28;20036;-69
2023/02/05 11:12:39;;;;;;;21.25;9.20;;;;;;;2.55;100.00;100479.34;5072425;28;20188;-70
2023/02/05 11:15:16;;;;;;;20.98;8.80;;;;;;;2.59;100.00;100496.88;5043411;28;20045;-72
2023/02/05 11:17:42;;;;;;;24.30;9.43;;;;;;;2.55;100.00;100486.50;5062749;28;20108;-71
2023/02/05 11:20:20;;;;;;;15.52;8.75;;;;;;;2.56;100.00;100499.72;5073392;28;20382;-71
2023/02/05 11:22:46;;;;;;;19.02;9.30;;;;;;;2.48;100.00;100494.09;5062608;28;20024;-70
2023/02/05 11:25:16;;;;;;;24.38;10.15;;;;;;;2.53;100.00;100485.75;5044842;28;20028;-70
2023/02/05 11:27:56;;;;;;;23.48;10.77;;;;;;;2.69;100.00;100488.16;5068041;28;20040;-72
2023/02/05 11:30:30;;;;;;;23.27;10.52;;;;;;;2.80;100.00;100481.09;5068860;28;20417;-70